createdAt,value
2023-06-17T00:00:39.843Z,17.23
2023-06-17T00:03:27.445Z,17.22
2023-06-17T00:05:58.372Z,17.21
2023-06-17T00:08:27.256Z,17.26
2023-06-17T00:10:54.931Z,17.29
2023-06-17T00:13:22.424Z,17.30
2023-06-17T00:15:54.744Z,17.33
2023-06-17T00:18:23.572Z,17.26
2023-06-17T00:20:54.983Z,17.20
2023-06-17T00:23:23.223Z,17.28
2023-06-17T00:25:52.918Z,17.22
2023-06-17T00:28:20.312Z,17.18
2023-06-17T00:30:48.657Z,17.20
2023-06-17T00:33:16.707Z,17.15
2023-06-17T00:35:45.404Z,17.09
2023-06-17T00:38:13.632Z,17.13
2023-06-17T00:40:41.505Z,17.15
2023-06-17T00:43:09.611Z,17.09
2023-06-17T00:45:40.594Z,16.95
2023-06-17T00:48:12.335Z,17.07
2023-06-17T00:50:41.232Z,17.06
2023-06-17T00:53:12.588Z,16.99
2023-06-17T00:55:40.842Z,16.86
2023-06-17T00:58:09.438Z,16.85
2023-06-17T01:00:37.948Z,16.83
2023-06-17T01:03:08.851Z,16.73
2023-06-17T01:05:38.979Z,16.70
2023-06-17T01:08:21.260Z,16.73
2023-06-17T01:11:09.686Z,16.67
2023-06-17T01:13:38.329Z,16.68
2023-06-17T01:16:06.431Z,16.59
2023-06-17T01:18:34.483Z,16.55
2023-06-17T01:21:04.758Z,16.60
2023-06-17T01:23:33.922Z,16.61
2023-06-17T01:26:03.673Z,16.42
2023-06-17T01:28:31.958Z,16.53
2023-06-17T01:30:59.909Z,16.43
2023-06-17T01:33:28.130Z,16.38
2023-06-17T01:36:05.094Z,16.46
2023-06-17T01:38:44.159Z,16.45
2023-06-17T01:41:19.658Z,16.43
2023-06-17T01:43:50.201Z,16.37
2023-06-17T01:46:18.338Z,16.39
2023-06-17T01:48:45.962Z,16.38
2023-06-17T01:51:14.025Z,16.37
2023-06-17T01:53:41.251Z,16.37
2023-06-17T01:56:08.911Z,16.37
2023-06-17T01:58:37.153Z,16.29
2023-06-17T02:01:04.741Z,16.31
2023-06-17T02:03:32.377Z,16.28
2023-06-17T02:06:00.009Z,16.31
2023-06-17T02:08:28.181Z,16.24
2023-06-17T02:10:56.336Z,16.23
2023-06-17T02:13:25.196Z,16.24
2023-06-17T02:15:52.831Z,16.24
2023-06-17T02:18:20.257Z,16.23
2023-06-17T02:20:47.833Z,16.22
2023-06-17T02:23:15.256Z,16.32
2023-06-17T02:25:42.888Z,16.20
2023-06-17T02:28:10.364Z,16.26
2023-06-17T02:30:38.112Z,16.18
2023-06-17T02:33:06.978Z,16.15
2023-06-17T02:35:34.964Z,16.20
2023-06-17T02:38:02.222Z,16.20
2023-06-17T02:40:30.510Z,16.16
2023-06-17T02:42:57.943Z,16.22
2023-06-17T02:45:25.509Z,16.19
2023-06-17T02:47:54.913Z,16.16
2023-06-17T02:50:24.618Z,16.10
2023-06-17T02:52:57.031Z,16.12
2023-06-17T02:55:26.877Z,16.09
2023-06-17T02:57:56.296Z,16.04
2023-06-17T03:00:25.391Z,16.14
2023-06-17T03:02:53.221Z,16.31
2023-06-17T03:05:21.059Z,16.19
2023-06-17T03:07:49.197Z,16.12
2023-06-17T03:10:19.478Z,16.16
2023-06-17T03:12:53.750Z,16.20
2023-06-17T03:15:22.280Z,16.25
2023-06-17T03:17:49.829Z,16.06
2023-06-17T03:20:17.807Z,16.20
2023-06-17T03:22:45.448Z,16.09
2023-06-17T03:25:13.737Z,16.12
2023-06-17T03:27:41.035Z,16.16
2023-06-17T03:30:09.148Z,16.13
2023-06-17T03:32:37.143Z,16.10
2023-06-17T03:35:06.024Z,16.09
2023-06-17T03:37:33.347Z,16.12
2023-06-17T03:40:00.857Z,16.16
2023-06-17T03:42:34.036Z,15.97
2023-06-17T03:45:01.742Z,16.02
2023-06-17T03:47:29.718Z,16.06
2023-06-17T03:49:58.578Z,16.08
2023-06-17T03:52:26.540Z,16.13
2023-06-17T03:54:55.680Z,16.13
2023-06-17T03:57:24.422Z,16.07
2023-06-17T03:59:52.194Z,16.08
2023-06-17T04:02:19.645Z,16.11
2023-06-17T04:04:47.488Z,16.20
2023-06-17T04:07:14.747Z,16.17
2023-06-17T04:09:48.196Z,16.16
2023-06-17T04:12:29.406Z,16.23
2023-06-17T04:14:56.947Z,16.29
2023-06-17T04:17:24.241Z,16.30
2023-06-17T04:19:56.000Z,16.28
2023-06-17T04:22:23.334Z,16.45
2023-06-17T04:24:56.973Z,16.48
2023-06-17T04:27:25.022Z,16.47
2023-06-17T04:29:53.182Z,16.48
2023-06-17T04:32:20.439Z,16.57
2023-06-17T04:34:49.288Z,16.71
2023-06-17T04:37:17.910Z,16.69
2023-06-17T04:39:45.821Z,16.67
2023-06-17T04:42:17.472Z,16.76
2023-06-17T04:44:50.326Z,16.75
2023-06-17T04:47:18.080Z,16.84
2023-06-17T04:49:45.602Z,16.87
2023-06-17T04:52:12.797Z,16.94
2023-06-17T04:54:41.133Z,16.91
2023-06-17T04:57:11.466Z,16.97
2023-06-17T04:59:39.199Z,17.05
2023-06-17T05:02:07.798Z,17.01
2023-06-17T05:04:35.550Z,17.13
2023-06-17T05:07:03.249Z,17.12
2023-06-17T05:09:33.571Z,17.25
2023-06-17T05:12:00.935Z,17.24
2023-06-17T05:14:29.433Z,17.22
2023-06-17T05:16:56.727Z,17.34
2023-06-17T05:19:24.443Z,17.39
2023-06-17T05:21:52.093Z,17.43
2023-06-17T05:24:23.787Z,17.39
2023-06-17T05:26:51.378Z,17.45
2023-06-17T05:29:19.214Z,17.54
2023-06-17T05:31:46.733Z,17.56
2023-06-17T05:34:14.374Z,17.74
2023-06-17T05:36:41.632Z,17.83
2023-06-17T05:39:09.204Z,18.04
2023-06-17T05:41:36.540Z,18.07
2023-06-17T05:44:05.266Z,18.02
2023-06-17T05:46:32.915Z,18.15
2023-06-17T05:49:01.460Z,18.29
2023-06-17T05:51:29.413Z,18.13
2023-06-17T05:53:59.283Z,18.22
2023-06-17T05:56:27.350Z,18.41
2023-06-17T05:58:55.209Z,18.48
2023-06-17T06:01:49.740Z,18.63
2023-06-17T06:04:17.630Z,18.38
2023-06-17T06:06:45.566Z,18.41
2023-06-17T06:09:13.208Z,18.41
2023-06-17T06:11:41.101Z,18.43
2023-06-17T06:14:09.037Z,18.51
2023-06-17T06:16:37.061Z,18.65
2023-06-17T06:19:05.737Z,18.72
2023-06-17T06:21:33.041Z,18.79
2023-06-17T06:24:01.287Z,18.76
2023-06-17T06:26:34.465Z,18.59
2023-06-17T06:29:02.164Z,18.82
2023-06-17T06:31:30.070Z,18.88
2023-06-17T06:33:57.616Z,19.10
2023-06-17T06:36:25.667Z,19.33
2023-06-17T06:38:53.224Z,19.27
2023-06-17T06:41:21.237Z,19.36
2023-06-17T06:43:58.672Z,19.42
2023-06-17T06:46:27.246Z,19.47
2023-06-17T06:48:54.974Z,19.48
2023-06-17T06:51:22.198Z,19.37
2023-06-17T06:53:50.161Z,19.68
2023-06-17T06:56:17.634Z,19.85
2023-06-17T06:58:48.570Z,20.05
2023-06-17T07:01:16.699Z,20.03
2023-06-17T07:03:45.487Z,19.56
2023-06-17T07:06:12.752Z,19.40
2023-06-17T07:08:40.358Z,19.39
2023-06-17T07:11:07.678Z,19.36
2023-06-17T07:13:35.458Z,19.35
2023-06-17T07:16:02.982Z,19.25
2023-06-17T07:18:30.715Z,19.16
2023-06-17T07:20:58.352Z,18.99
2023-06-17T07:23:26.396Z,18.88
2023-06-17T07:25:56.182Z,19.06
2023-06-17T07:28:24.593Z,19.05
2023-06-17T07:30:52.095Z,19.04
2023-06-17T07:33:19.684Z,19.19
2023-06-17T07:35:47.030Z,19.26
2023-06-17T07:38:14.896Z,19.42
2023-06-17T07:40:42.419Z,19.44
2023-06-17T07:43:10.972Z,19.28
2023-06-17T07:45:38.152Z,19.39
2023-06-17T07:48:06.127Z,19.52
2023-06-17T07:50:33.480Z,19.34
2023-06-17T07:53:01.218Z,19.24
2023-06-17T07:55:30.395Z,19.24
2023-06-17T07:57:58.069Z,19.34
2023-06-17T08:00:25.717Z,19.41
2023-06-17T08:02:53.649Z,19.40
2023-06-17T08:05:21.058Z,19.06
2023-06-17T08:07:48.627Z,19.34
2023-06-17T08:10:15.990Z,19.46
2023-06-17T08:12:43.884Z,19.66
2023-06-17T08:15:11.325Z,19.74
2023-06-17T08:17:38.869Z,19.90
2023-06-17T08:20:11.514Z,19.92
2023-06-17T08:22:39.453Z,19.92
2023-06-17T08:25:07.263Z,20.07
2023-06-17T08:27:34.953Z,19.95
2023-06-17T08:30:02.361Z,20.23
2023-06-17T08:32:29.961Z,20.38
2023-06-17T08:34:57.360Z,20.65
2023-06-17T08:37:24.897Z,20.72
2023-06-17T08:39:52.154Z,20.33
2023-06-17T08:42:20.049Z,20.66
2023-06-17T08:44:49.918Z,21.09
2023-06-17T08:47:18.619Z,21.19
2023-06-17T08:49:47.144Z,21.43
2023-06-17T08:52:16.369Z,20.98
2023-06-17T08:54:44.357Z,21.03
2023-06-17T08:57:14.365Z,21.13
2023-06-17T08:59:42.345Z,21.32
2023-06-17T09:02:13.200Z,20.94
2023-06-17T09:04:41.295Z,20.91
2023-06-17T09:07:10.773Z,20.72
2023-06-17T09:09:38.724Z,20.79
2023-06-17T09:12:09.646Z,20.72
2023-06-17T09:14:37.597Z,20.77
2023-06-17T09:17:05.326Z,20.87
2023-06-17T09:19:33.397Z,20.67
2023-06-17T09:22:13.238Z,21.08
2023-06-17T09:24:44.274Z,21.02
2023-06-17T09:27:21.624Z,21.06
2023-06-17T09:29:49.628Z,21.02
2023-06-17T09:32:17.210Z,20.83
2023-06-17T09:34:50.359Z,20.84
2023-06-17T09:37:17.924Z,21.18
2023-06-17T09:39:47.030Z,21.33
2023-06-17T09:42:14.570Z,21.16
2023-06-17T09:44:47.973Z,21.05
2023-06-17T09:47:16.393Z,21.23
2023-06-17T09:49:45.072Z,21.36
2023-06-17T09:52:13.592Z,21.01
2023-06-17T09:54:42.667Z,21.26
2023-06-17T09:57:11.233Z,21.29
2023-06-17T09:59:39.170Z,21.17
2023-06-17T10:02:07.848Z,20.77
2023-06-17T10:04:38.952Z,20.63
2023-06-17T10:07:08.411Z,20.77
2023-06-17T10:09:36.444Z,20.83
2023-06-17T10:12:06.884Z,20.96
2023-06-17T10:14:35.274Z,21.02
2023-06-17T10:17:06.724Z,20.83
2023-06-17T10:19:38.000Z,20.63
2023-06-17T10:22:12.662Z,20.74
2023-06-17T10:24:40.352Z,20.42
2023-06-17T10:27:08.761Z,20.78
2023-06-17T10:29:36.868Z,20.73
2023-06-17T10:32:24.229Z,21.17
2023-06-17T10:35:06.854Z,21.33
2023-06-17T10:37:46.184Z,21.03
2023-06-17T10:40:27.881Z,20.94
2023-06-17T10:43:05.108Z,20.71
2023-06-17T10:45:48.116Z,20.71
2023-06-17T10:48:19.065Z,20.98
2023-06-17T10:50:52.735Z,21.61
2023-06-17T10:53:27.240Z,21.50
2023-06-17T10:55:55.003Z,20.99
2023-06-17T10:58:23.034Z,21.00
2023-06-17T11:01:01.994Z,21.09
2023-06-17T11:03:30.940Z,21.19
2023-06-17T11:06:07.191Z,21.36
2023-06-17T11:08:40.744Z,21.15
2023-06-17T11:11:18.900Z,21.35
2023-06-17T11:13:53.163Z,21.77
2023-06-17T11:16:51.991Z,22.16
2023-06-17T11:19:21.685Z,21.61
2023-06-17T11:22:05.340Z,21.73
2023-06-17T11:24:45.670Z,21.75
2023-06-17T11:27:22.007Z,22.21
2023-06-17T11:29:59.711Z,22.27
2023-06-17T11:32:31.869Z,22.17
2023-06-17T11:35:03.799Z,22.20
2023-06-17T11:37:32.567Z,21.82
2023-06-17T11:40:02.917Z,21.78
2023-06-17T11:42:32.423Z,21.74
2023-06-17T11:45:04.575Z,21.45
2023-06-17T11:47:56.197Z,21.55
2023-06-17T11:51:20.845Z,21.09
2023-06-17T11:54:28.250Z,20.98
2023-06-17T11:57:34.135Z,21.05
2023-06-17T12:00:12.181Z,20.81
2023-06-17T12:02:47.644Z,20.95
2023-06-17T12:05:15.392Z,20.69
2023-06-17T12:07:46.820Z,20.40
2023-06-17T12:10:19.201Z,20.53
2023-06-17T12:12:48.990Z,20.55
2023-06-17T12:15:17.724Z,20.79
2023-06-17T12:17:52.618Z,20.60
2023-06-17T12:20:20.975Z,20.40
2023-06-17T12:22:50.829Z,20.24
2023-06-17T12:25:19.188Z,20.42
2023-06-17T12:27:47.343Z,20.37
2023-06-17T12:30:15.342Z,20.43
2023-06-17T12:32:44.746Z,20.36
2023-06-17T12:35:13.370Z,20.45
2023-06-17T12:37:42.730Z,20.50
2023-06-17T12:40:11.317Z,20.45
2023-06-17T12:42:40.029Z,20.55
2023-06-17T12:45:08.997Z,20.48
2023-06-17T12:47:38.118Z,20.43
2023-06-17T12:50:07.043Z,20.29
2023-06-17T12:52:38.862Z,20.35
2023-06-17T12:55:08.927Z,20.18
2023-06-17T12:57:36.655Z,20.06
2023-06-17T13:00:07.718Z,20.16
2023-06-17T13:02:38.341Z,20.06
2023-06-17T13:05:06.766Z,20.06
2023-06-17T13:07:34.704Z,20.09
2023-06-17T13:10:03.071Z,20.26
2023-06-17T13:12:30.887Z,20.58
2023-06-17T13:14:58.153Z,20.53
2023-06-17T13:17:25.926Z,20.53
2023-06-17T13:19:53.289Z,20.35
2023-06-17T13:22:21.048Z,20.48
2023-06-17T13:24:48.439Z,20.58
2023-06-17T13:27:19.772Z,20.69
2023-06-17T13:29:47.324Z,20.82
2023-06-17T13:32:16.473Z,20.85
2023-06-17T13:34:45.818Z,20.85
2023-06-17T13:37:13.708Z,21.12
2023-06-17T13:39:41.667Z,20.79
2023-06-17T13:42:09.539Z,20.83
2023-06-17T13:44:38.405Z,21.04
2023-06-17T13:47:07.047Z,21.18
2023-06-17T13:49:35.272Z,21.35
2023-06-17T13:52:04.405Z,21.59
2023-06-17T13:54:31.643Z,21.56
2023-06-17T13:57:00.370Z,21.63
2023-06-17T13:59:27.994Z,21.81
2023-06-17T14:01:55.942Z,21.86
2023-06-17T14:04:23.829Z,22.31
2023-06-17T14:06:51.787Z,22.61
2023-06-17T14:09:19.226Z,22.27
2023-06-17T14:11:47.530Z,22.58
2023-06-17T14:14:15.364Z,22.29
2023-06-17T14:16:43.196Z,22.04
2023-06-17T14:19:11.026Z,22.30
2023-06-17T14:21:54.611Z,22.29
2023-06-17T14:24:23.421Z,22.26
2023-06-17T14:26:55.285Z,22.24
2023-06-17T14:29:25.448Z,21.97
2023-06-17T14:31:54.011Z,22.35
2023-06-17T14:34:21.374Z,22.77
2023-06-17T14:36:49.393Z,22.83
2023-06-17T14:39:16.683Z,23.29
2023-06-17T14:41:44.682Z,23.34
2023-06-17T14:44:12.826Z,23.46
2023-06-17T14:46:42.204Z,23.90
2023-06-17T14:49:09.936Z,23.41
2023-06-17T14:51:37.812Z,22.77
2023-06-17T14:54:06.342Z,23.00
2023-06-17T14:56:35.901Z,22.94
2023-06-17T14:59:06.174Z,23.21
2023-06-17T15:01:35.933Z,23.43
2023-06-17T15:04:05.416Z,23.40
2023-06-17T15:06:33.194Z,23.35
2023-06-17T15:09:36.159Z,23.73
2023-06-17T15:12:12.805Z,23.65
2023-06-17T15:14:44.464Z,23.57
2023-06-17T15:17:12.743Z,23.73
2023-06-17T15:19:40.195Z,23.54
2023-06-17T15:22:07.797Z,23.45
2023-06-17T15:24:35.631Z,23.18
2023-06-17T15:27:03.404Z,23.41
2023-06-17T15:29:30.903Z,23.42
2023-06-17T15:31:58.743Z,23.32
2023-06-17T15:34:26.198Z,23.34
2023-06-17T15:36:53.787Z,23.41
2023-06-17T15:39:24.491Z,23.26
2023-06-17T15:41:54.200Z,23.06
2023-06-17T15:44:22.384Z,23.08
2023-06-17T15:46:51.231Z,23.04
2023-06-17T15:49:18.940Z,23.01
2023-06-17T15:51:46.522Z,23.02
2023-06-17T15:54:14.134Z,23.07
2023-06-17T15:56:47.481Z,23.11
2023-06-17T15:59:15.010Z,23.01
2023-06-17T16:01:42.810Z,22.98
2023-06-17T16:04:33.643Z,22.94
2023-06-17T16:07:02.911Z,22.77
2023-06-17T16:09:32.659Z,22.61
2023-06-17T16:12:01.215Z,22.58
2023-06-17T16:14:29.438Z,22.61
2023-06-17T16:17:02.279Z,22.68
2023-06-17T16:19:32.333Z,22.70
2023-06-17T16:22:02.501Z,22.66
2023-06-17T16:24:31.186Z,22.54
2023-06-17T16:27:00.131Z,22.49
2023-06-17T16:29:27.496Z,22.48
2023-06-17T16:31:56.000Z,22.57
2023-06-17T16:34:23.439Z,22.27
2023-06-17T16:36:51.218Z,22.23
2023-06-17T16:39:18.585Z,22.35
2023-06-17T16:41:46.407Z,22.38
2023-06-17T16:44:13.870Z,22.42
2023-06-17T16:46:41.518Z,22.46
2023-06-17T16:49:09.498Z,22.45
2023-06-17T16:51:37.307Z,22.48
2023-06-17T16:54:06.630Z,22.51
2023-06-17T16:56:35.338Z,22.56
2023-06-17T16:59:03.605Z,22.29
2023-06-17T17:01:31.875Z,22.27
2023-06-17T17:04:01.467Z,22.11
2023-06-17T17:06:29.118Z,22.00
2023-06-17T17:08:56.567Z,21.94
2023-06-17T17:11:24.242Z,21.81
2023-06-17T17:13:51.851Z,21.76
2023-06-17T17:16:19.612Z,21.63
2023-06-17T17:18:47.232Z,21.45
2023-06-17T17:21:15.277Z,21.42
2023-06-17T17:23:46.394Z,21.30
2023-06-17T17:26:14.156Z,21.17
2023-06-17T17:28:42.919Z,20.98
2023-06-17T17:31:10.568Z,20.85
2023-06-17T17:33:38.251Z,20.83
2023-06-17T17:36:06.255Z,20.82
2023-06-17T17:38:33.634Z,20.73
2023-06-17T17:41:02.359Z,20.65
2023-06-17T17:43:30.904Z,20.50
2023-06-17T17:45:59.065Z,20.46
2023-06-17T17:48:27.594Z,20.43
2023-06-17T17:50:55.222Z,20.47
2023-06-17T17:53:22.727Z,20.51
2023-06-17T17:55:50.570Z,20.47
2023-06-17T17:58:18.235Z,20.52
2023-06-17T18:01:07.997Z,20.47
2023-06-17T18:03:35.622Z,20.56
2023-06-17T18:06:03.252Z,20.62
2023-06-17T18:08:30.596Z,20.56
2023-06-17T18:10:58.333Z,20.52
2023-06-17T18:13:25.667Z,20.51
2023-06-17T18:15:53.426Z,20.49
2023-06-17T18:18:20.680Z,20.40
2023-06-17T18:20:48.374Z,20.45
2023-06-17T18:23:15.933Z,20.38
2023-06-17T18:25:43.564Z,20.35
2023-06-17T18:28:11.388Z,20.33
2023-06-17T18:30:39.041Z,20.31
2023-06-17T18:33:06.378Z,20.28
2023-06-17T18:35:34.404Z,20.36
2023-06-17T18:38:01.660Z,20.34
2023-06-17T18:40:29.500Z,20.25
2023-06-17T18:42:56.978Z,20.10
2023-06-17T18:45:24.516Z,20.19
2023-06-17T18:47:52.087Z,20.09
2023-06-17T18:50:19.959Z,20.10
2023-06-17T18:52:47.635Z,20.02
2023-06-17T18:55:15.311Z,20.06
2023-06-17T18:57:42.761Z,19.97
2023-06-17T19:00:11.472Z,19.98
2023-06-17T19:02:39.041Z,19.96
2023-06-17T19:05:07.304Z,19.98
2023-06-17T19:07:34.776Z,19.87
2023-06-17T19:10:02.362Z,19.85
2023-06-17T19:12:31.793Z,19.78
2023-06-17T19:14:59.927Z,19.77
2023-06-17T19:17:27.665Z,19.68
2023-06-17T19:19:55.361Z,19.62
2023-06-17T19:22:23.585Z,19.56
2023-06-17T19:24:52.401Z,19.51
2023-06-17T19:27:19.730Z,19.46
2023-06-17T19:29:47.314Z,19.50
2023-06-17T19:32:14.611Z,19.45
2023-06-17T19:34:43.058Z,19.41
2023-06-17T19:37:10.531Z,19.43
2023-06-17T19:39:38.146Z,19.35
2023-06-17T19:42:05.953Z,19.18
2023-06-17T19:44:36.222Z,19.26
2023-06-17T19:47:05.137Z,19.28
2023-06-17T19:49:33.209Z,19.18
2023-06-17T19:52:00.637Z,19.17
2023-06-17T19:54:28.689Z,19.08
2023-06-17T19:56:56.012Z,19.15
2023-06-17T19:59:23.677Z,19.16
2023-06-17T20:01:52.189Z,19.13
2023-06-17T20:04:20.104Z,19.08
2023-06-17T20:06:47.443Z,19.10
2023-06-17T20:09:15.045Z,19.08
2023-06-17T20:11:42.309Z,19.09
2023-06-17T20:14:09.924Z,19.12
2023-06-17T20:16:37.494Z,19.00
2023-06-17T20:19:05.041Z,18.95
2023-06-17T20:21:32.539Z,18.93
2023-06-17T20:24:18.940Z,19.10
2023-06-17T20:26:46.309Z,18.94
2023-06-17T20:29:14.125Z,18.86
2023-06-17T20:31:41.485Z,18.75
2023-06-17T20:34:09.063Z,18.56
2023-06-17T20:36:36.458Z,18.54
2023-06-17T20:39:05.748Z,18.47
2023-06-17T20:41:33.288Z,18.44
2023-06-17T20:44:01.114Z,18.40
2023-06-17T20:46:31.680Z,18.30
2023-06-17T20:48:59.354Z,18.43
2023-06-17T20:51:26.909Z,18.39
2023-06-17T20:53:54.525Z,18.19
2023-06-17T20:56:23.908Z,18.17
2023-06-17T20:58:52.942Z,18.25
2023-06-17T21:01:21.077Z,18.14
2023-06-17T21:03:48.976Z,18.11
2023-06-17T21:06:16.260Z,18.07
2023-06-17T21:08:43.879Z,18.13
2023-06-17T21:11:11.402Z,18.14
2023-06-17T21:13:38.999Z,18.09
2023-06-17T21:16:06.382Z,18.07
2023-06-17T21:18:34.320Z,18.18
2023-06-17T21:21:01.584Z,18.21
2023-06-17T21:23:29.335Z,18.23
2023-06-17T21:25:59.665Z,18.28
2023-06-17T21:28:28.238Z,18.16
2023-06-17T21:30:55.853Z,18.16
2023-06-17T21:33:23.491Z,18.05
2023-06-17T21:35:50.744Z,18.21
2023-06-17T21:38:18.286Z,18.29
2023-06-17T21:40:45.527Z,18.13
2023-06-17T21:43:14.113Z,18.09
2023-06-17T21:45:41.501Z,18.11
2023-06-17T21:48:09.108Z,18.09
2023-06-17T21:50:36.852Z,18.11
2023-06-17T21:53:04.482Z,18.09
2023-06-17T21:55:31.739Z,18.10
2023-06-17T21:57:59.283Z,18.21
2023-06-17T22:00:28.663Z,18.17
2023-06-17T22:02:56.828Z,18.23
2023-06-17T22:05:24.292Z,18.31
2023-06-17T22:07:53.128Z,18.21
2023-06-17T22:10:20.820Z,18.28
2023-06-17T22:12:48.909Z,18.26
2023-06-17T22:15:16.442Z,18.14
2023-06-17T22:17:44.026Z,18.07
2023-06-17T22:20:11.993Z,18.11
2023-06-17T22:22:39.870Z,18.09
2023-06-17T22:25:07.839Z,18.02
2023-06-17T22:27:35.751Z,18.03
2023-06-17T22:30:04.243Z,17.98
2023-06-17T22:32:31.899Z,18.04
2023-06-17T22:34:59.161Z,18.06
2023-06-17T22:37:26.715Z,18.00
2023-06-17T22:39:53.900Z,18.05
2023-06-17T22:42:21.749Z,17.97
2023-06-17T22:44:49.370Z,18.07
2023-06-17T22:47:17.378Z,18.07
2023-06-17T22:49:44.554Z,17.99
2023-06-17T22:52:12.414Z,17.83
2023-06-17T22:54:39.658Z,17.96
2023-06-17T22:57:07.812Z,17.83
2023-06-17T22:59:36.060Z,17.90
2023-06-17T23:02:04.275Z,17.99
2023-06-17T23:04:32.055Z,17.85
2023-06-17T23:07:00.247Z,17.72
2023-06-17T23:09:27.602Z,17.64
2023-06-17T23:11:55.155Z,17.57
2023-06-17T23:14:25.008Z,17.58
2023-06-17T23:16:52.672Z,17.56
2023-06-17T23:19:20.034Z,17.55
2023-06-17T23:21:47.600Z,17.46
2023-06-17T23:24:15.609Z,17.40
2023-06-17T23:26:43.277Z,17.37
2023-06-17T23:29:10.543Z,17.23
2023-06-17T23:31:38.945Z,17.20
2023-06-17T23:34:06.638Z,17.18
2023-06-17T23:36:34.331Z,17.30
2023-06-17T23:39:02.790Z,17.22
2023-06-17T23:41:30.425Z,17.25
2023-06-17T23:43:59.232Z,17.24
2023-06-17T23:46:45.355Z,17.27
2023-06-17T23:49:50.339Z,17.40
2023-06-17T23:52:55.149Z,17.50
2023-06-17T23:55:22.562Z,17.46
